Terminal Aerodrome Forecast
Issued by NWS

Home | Current Version | Previous Version | Text Only | Print | Product List | Glossary On
Versions: 1 2 3 4 5 6 7 8 9 10 11 12 13 14 15 16 17 18 19
000
FTUS43 KEAX 180600 AAA
TAFMKC
TAF AMD
KMKC 180623Z 1806/1906 06005KT 1SM -SN OVC020
      TEMPO 1807/1811 3/4SM -SN BR OVC010
     FM181100 08006KT 3SM -SN BR OVC007
     FM181600 08007KT 5SM BR OVC010=

USA.gov is the U.S. government's official web portal to all federal, state and local government web resources and services.